Time;durP1;ratioP1;P1;durP2;ratioP2;P2;SDS_P1;SDS_P2;PMS_P1;PMS_P2;Temp;Humidity;BMP_temperature;BMP_pressure;BME280_temperature;BME280_humidity;BME280_pressure;Samples;Min_cycle;Max_cycle;Signal;HPM_P1;HPM_P2
2023/04/03 00:01:15;;;;;;;;;;;3.30;99.90;;;;;;5022403;28;19928;-69
2023/04/03 00:03:44;;;;;;;;;;;3.30;99.90;;;;;;5022709;28;20067;-68
2023/04/03 00:06:11;;;;;;;;;;;3.40;99.90;;;;;;5021740;28;20209;-68
2023/04/03 00:08:39;;;;;;;;;;;3.40;99.90;;;;;;5022430;28;19957;-68
2023/04/03 00:11:05;;;;;;;;;;;3.40;99.90;;;;;;5037841;28;20262;-69
2023/04/03 00:13:32;;;;;;;;;;;3.30;99.90;;;;;;5042165;28;19960;-68
2023/04/03 00:15:59;;;;;;;;;;;3.40;99.90;;;;;;5041732;28;19992;-68
2023/04/03 00:18:26;;;;;;;;;;;3.30;99.90;;;;;;5041829;28;19927;-68
2023/04/03 00:20:54;;;;;;;;;;;3.40;99.90;;;;;;5042224;28;19984;-69
2023/04/03 00:23:20;;;;;;;;;;;3.40;99.90;;;;;;5042573;28;19960;-69
2023/04/03 00:25:47;;;;;;;;;;;3.40;99.90;;;;;;5042057;28;20221;-67
2023/04/03 00:28:14;;;;;;;;;;;3.40;99.90;;;;;;5041847;28;19957;-68
2023/04/03 00:30:40;;;;;;;;;;;3.40;99.90;;;;;;5041948;28;20220;-68
2023/04/03 00:33:07;;;;;;;;;;;3.40;99.90;;;;;;5042040;28;19929;-67
2023/04/03 00:35:35;;;;;;;;;;;3.40;99.90;;;;;;5042995;28;19929;-70
2023/04/03 00:38:03;;;;;;;;;;;3.40;99.90;;;;;;5044928;28;19984;-68
2023/04/03 00:40:34;;;;;;;;;;;3.40;99.90;;;;;;5045720;28;20000;-68
2023/04/03 00:43:00;;;;;;;;;;;3.30;99.90;;;;;;5045863;28;19952;-69
2023/04/03 00:45:30;;;;;;;;;;;3.30;99.90;;;;;;5046037;28;19988;-68
2023/04/03 00:48:00;;;;;;;;;;;3.20;99.90;;;;;;5042186;28;19988;-68
2023/04/03 00:50:27;;;;;;;;;;;3.20;99.90;;;;;;5033781;28;19921;-68
2023/04/03 00:52:54;;;;;;;;;;;3.20;99.90;;;;;;5026115;28;19930;-68
2023/04/03 00:55:22;;;;;;;;;;;3.20;99.90;;;;;;5025755;28;19944;-68
2023/04/03 00:57:49;;;;;;;;;;;3.10;99.90;;;;;;5025469;28;19997;-68
2023/04/03 01:00:18;;;;;;;;;;;3.10;99.90;;;;;;5025391;28;19922;-68
2023/04/03 01:02:44;;;;;;;;;;;3.20;99.90;;;;;;5025301;28;19933;-69
2023/04/03 01:05:11;;;;;;;;;;;3.10;99.90;;;;;;5024936;28;19976;-68
2023/04/03 01:07:38;;;;;;;;;;;3.10;99.90;;;;;;5024697;28;19921;-68
2023/04/03 01:10:06;;;;;;;;;;;3.20;99.90;;;;;;5025027;28;20133;-69
2023/04/03 01:12:35;;;;;;;;;;;3.20;99.90;;;;;;5025251;28;19985;-68
2023/04/03 01:15:02;;;;;;;;;;;3.20;99.90;;;;;;5024984;28;19964;-69
2023/04/03 01:17:30;;;;;;;;;;;3.10;99.90;;;;;;5024431;28;19929;-70
2023/04/03 01:20:03;;;;;;;;;;;3.10;99.90;;;;;;5024751;28;19929;-67
2023/04/03 01:22:31;;;;;;;;;;;3.10;99.90;;;;;;5025156;28;19952;-68
2023/04/03 01:24:58;;;;;;;;;;;3.10;99.90;;;;;;5024162;28;19952;-68
2023/04/03 01:27:25;;;;;;;;;;;3.20;99.90;;;;;;5024300;28;19929;-67
2023/04/03 01:29:54;;;;;;;;;;;3.20;99.90;;;;;;5024820;28;20009;-68
2023/04/03 01:32:22;;;;;;;;;;;3.20;99.90;;;;;;5024556;28;19936;-68
2023/04/03 01:34:48;;;;;;;;;;;3.10;99.90;;;;;;5025083;28;19921;-68
2023/04/03 01:37:15;;;;;;;;;;;3.10;99.90;;;;;;5024693;28;19929;-68
2023/04/03 01:39:42;;;;;;;;;;;3.10;99.90;;;;;;5024290;28;20187;-69
2023/04/03 01:42:08;;;;;;;;;;;3.10;99.90;;;;;;5024480;28;19988;-68
2023/04/03 01:44:35;;;;;;;;;;;3.10;99.90;;;;;;5024631;28;19960;-67
2023/04/03 01:47:06;;;;;;;;;;;3.10;99.90;;;;;;5020944;28;19961;-68
2023/04/03 01:49:34;;;;;;;;;;;3.10;99.90;;;;;;5024657;28;19928;-69
2023/04/03 01:52:00;;;;;;;;;;;3.10;99.90;;;;;;5024548;28;19976;-68
2023/04/03 01:54:27;;;;;;;;;;;3.00;99.90;;;;;;5024529;28;19960;-69
2023/04/03 01:56:54;;;;;;;;;;;3.00;99.90;;;;;;5024044;28;19929;-68
2023/04/03 01:59:20;;;;;;;;;;;3.00;99.90;;;;;;5024045;28;19997;-69
2023/04/03 02:01:47;;;;;;;;;;;2.90;99.90;;;;;;5024429;28;19956;-68
2023/04/03 02:04:13;;;;;;;;;;;3.00;99.90;;;;;;5024684;28;19957;-68
2023/04/03 02:06:41;;;;;;;;;;;2.90;99.90;;;;;;5023688;28;19929;-68
2023/04/03 02:09:08;;;;;;;;;;;2.90;99.90;;;;;;5024457;28;19921;-68
2023/04/03 02:11:35;;;;;;;;;;;2.90;99.90;;;;;;5024104;28;19947;-68
2023/04/03 02:14:01;;;;;;;;;;;2.90;99.90;;;;;;5023774;28;20237;-68
2023/04/03 02:16:28;;;;;;;;;;;2.90;99.90;;;;;;5023058;28;19928;-68
2023/04/03 02:18:55;;;;;;;;;;;2.90;99.90;;;;;;5023792;28;19968;-68
2023/04/03 02:21:21;;;;;;;;;;;3.60;99.90;;;;;;5023893;28;19984;-68
2023/04/03 02:23:49;;;;;;;;;;;2.80;99.90;;;;;;5023864;28;19996;-68
2023/04/03 02:26:17;;;;;;;;;;;2.80;99.90;;;;;;5023195;28;19990;-68
2023/04/03 02:28:44;;;;;;;;;;;2.80;99.90;;;;;;5023455;28;19935;-69
2023/04/03 02:31:10;;;;;;;;;;;2.70;99.90;;;;;;5023475;28;19964;-67
2023/04/03 02:33:37;;;;;;;;;;;2.70;99.90;;;;;;5023753;28;19937;-68
2023/04/03 02:36:05;;;;;;;;;;;2.70;99.90;;;;;;5023178;28;19972;-68
2023/04/03 02:38:32;;;;;;;;;;;2.70;99.90;;;;;;5023181;28;20231;-69
2023/04/03 02:41:01;;;;;;;;;;;2.70;99.90;;;;;;5023545;28;19936;-68
2023/04/03 02:43:30;;;;;;;;;;;2.70;99.90;;;;;;5023347;28;19957;-68
2023/04/03 02:45:58;;;;;;;;;;;2.70;99.90;;;;;;5021214;28;19930;-71
2023/04/03 02:48:25;;;;;;;;;;;2.60;99.90;;;;;;5003929;28;20202;-68
2023/04/03 02:50:52;;;;;;;;;;;2.60;99.90;;;;;;5004309;28;20186;-68
2023/04/03 02:53:18;;;;;;;;;;;2.60;99.90;;;;;;5004368;28;19957;-69
2023/04/03 02:55:45;;;;;;;;;;;2.60;99.90;;;;;;5003417;28;19930;-70
2023/04/03 02:58:13;;;;;;;;;;;2.60;99.90;;;;;;5003038;28;19989;-70
2023/04/03 03:00:40;;;;;;;;;;;2.60;99.90;;;;;;5003221;28;19965;-70
2023/04/03 03:03:06;;;;;;;;;;;2.60;99.90;;;;;;5003551;28;19984;-68
2023/04/03 03:05:33;;;;;;;;;;;2.60;99.90;;;;;;5003794;28;19993;-68
2023/04/03 03:08:00;;;;;;;;;;;2.50;99.90;;;;;;5003126;28;20273;-68
2023/04/03 03:10:26;;;;;;;;;;;2.50;99.90;;;;;;5003666;28;19973;-69
2023/04/03 03:12:53;;;;;;;;;;;2.50;99.90;;;;;;5003412;28;20025;-69
2023/04/03 03:15:21;;;;;;;;;;;2.50;99.90;;;;;;5002948;28;19960;-67
2023/04/03 03:17:48;;;;;;;;;;;2.50;99.90;;;;;;5002650;28;19930;-68
2023/04/03 03:20:15;;;;;;;;;;;2.40;99.90;;;;;;5002902;28;19963;-69
2023/04/03 03:22:42;;;;;;;;;;;2.40;99.90;;;;;;5003256;28;19968;-68
2023/04/03 03:25:09;;;;;;;;;;;2.40;99.90;;;;;;5003080;28;19926;-69
2023/04/03 03:27:35;;;;;;;;;;;2.40;99.90;;;;;;5002891;28;19922;-69
2023/04/03 03:30:02;;;;;;;;;;;2.40;99.90;;;;;;5013547;28;19953;-68
2023/04/03 03:32:30;;;;;;;;;;;2.40;99.90;;;;;;5023777;28;20181;-70
2023/04/03 03:34:57;;;;;;;;;;;2.40;99.90;;;;;;5023302;28;19922;-68
2023/04/03 03:37:23;;;;;;;;;;;2.40;99.90;;;;;;5023078;28;19993;-69
2023/04/03 03:39:50;;;;;;;;;;;2.30;99.90;;;;;;5023207;28;19992;-68
2023/04/03 03:42:16;;;;;;;;;;;2.30;99.90;;;;;;5022678;28;20284;-72
2023/04/03 03:44:43;;;;;;;;;;;2.20;99.90;;;;;;5022765;28;19993;-69
2023/04/03 03:47:10;;;;;;;;;;;2.20;99.90;;;;;;5019946;28;19935;-68
2023/04/03 03:49:38;;;;;;;;;;;2.20;99.90;;;;;;5023530;28;19922;-68
2023/04/03 03:52:05;;;;;;;;;;;2.20;99.90;;;;;;5023648;28;20258;-68
2023/04/03 03:54:32;;;;;;;;;;;2.10;99.90;;;;;;5023492;28;19922;-68
2023/04/03 03:56:58;;;;;;;;;;;2.10;99.90;;;;;;5022802;28;20117;-68
2023/04/03 03:59:25;;;;;;;;;;;2.10;99.90;;;;;;5022626;28;19976;-68
2023/04/03 04:01:51;;;;;;;;;;;2.00;99.90;;;;;;5023285;28;19957;-71
2023/04/03 04:04:18;;;;;;;;;;;2.00;99.90;;;;;;5023048;28;19979;-68
2023/04/03 04:06:46;;;;;;;;;;;1.90;99.90;;;;;;5022018;28;19984;-68
2023/04/03 04:09:13;;;;;;;;;;;2.00;99.90;;;;;;5022126;28;20009;-68
2023/04/03 04:11:40;;;;;;;;;;;2.00;99.90;;;;;;5038169;28;19921;-68
2023/04/03 04:14:07;;;;;;;;;;;1.90;99.90;;;;;;5040740;28;19922;-68
2023/04/03 04:16:33;;;;;;;;;;;1.90;99.90;;;;;;5026161;28;20232;-68
2023/04/03 04:19:00;;;;;;;;;;;2.00;99.90;;;;;;5026672;28;19961;-68
2023/04/03 04:21:26;;;;;;;;;;;1.90;99.90;;;;;;5025977;28;19993;-69
2023/04/03 04:23:54;;;;;;;;;;;1.90;99.90;;;;;;5025950;28;19948;-68
2023/04/03 04:26:21;;;;;;;;;;;1.90;99.90;;;;;;5025775;28;19996;-68
2023/04/03 04:28:48;;;;;;;;;;;1.90;99.90;;;;;;5026970;28;19988;-68
2023/04/03 04:31:14;;;;;;;;;;;1.90;99.90;;;;;;5026591;28;19957;-69
2023/04/03 04:33:41;;;;;;;;;;;2.00;99.90;;;;;;5026350;28;20162;-70
2023/04/03 04:36:08;;;;;;;;;;;2.00;99.90;;;;;;5025449;28;19988;-69
2023/04/03 04:38:35;;;;;;;;;;;1.90;99.90;;;;;;5025299;28;19936;-68
2023/04/03 04:41:03;;;;;;;;;;;2.00;99.90;;;;;;5025467;28;19928;-68
2023/04/03 04:43:30;;;;;;;;;;;2.00;99.90;;;;;;5025445;28;20247;-68
2023/04/03 04:46:03;;;;;;;;;;;2.00;99.90;;;;;;5025151;28;20124;-68
2023/04/03 04:48:30;;;;;;;;;;;1.90;99.90;;;;;;5025832;28;20116;-69
2023/04/03 04:51:03;;;;;;;;;;;1.90;99.90;;;;;;5023347;28;19994;-68
2023/04/03 04:53:30;;;;;;;;;;;1.90;99.90;;;;;;5026022;28;19927;-68
2023/04/03 04:55:57;;;;;;;;;;;1.80;99.90;;;;;;5025796;28;19956;-68
2023/04/03 04:58:25;;;;;;;;;;;1.80;99.90;;;;;;5025876;28;19961;-69
2023/04/03 05:00:59;;;;;;;;;;;1.80;99.90;;;;;;5025400;28;19921;-68
2023/04/03 05:03:25;;;;;;;;;;;1.80;99.90;;;;;;5025947;28;20094;-69
2023/04/03 05:05:57;;;;;;;;;;;1.60;99.90;;;;;;5022367;28;19989;-68
2023/04/03 05:08:24;;;;;;;;;;;1.80;99.90;;;;;;5025006;28;19936;-69
2023/04/03 05:10:50;;;;;;;;;;;1.80;99.90;;;;;;5025471;28;19927;-68
2023/04/03 05:13:18;;;;;;;;;;;1.80;99.90;;;;;;5025401;28;19996;-67
2023/04/03 05:15:46;;;;;;;;;;;1.80;99.90;;;;;;5025088;28;19937;-68
2023/04/03 05:18:12;;;;;;;;;;;1.80;99.90;;;;;;5025502;28;19952;-67
2023/04/03 05:20:39;;;;;;;;;;;1.80;99.90;;;;;;5025579;28;19944;-70
2023/04/03 05:23:06;;;;;;;;;;;1.80;99.90;;;;;;5025773;28;19943;-70
2023/04/03 05:25:33;;;;;;;;;;;1.80;99.90;;;;;;5025589;28;19953;-69
2023/04/03 05:27:59;;;;;;;;;;;1.80;99.90;;;;;;5024818;28;20133;-69
2023/04/03 05:30:26;;;;;;;;;;;1.80;99.90;;;;;;5025727;28;20005;-71
2023/04/03 05:32:54;;;;;;;;;;;1.80;99.90;;;;;;5024640;28;19929;-69
2023/04/03 05:35:21;;;;;;;;;;;1.80;99.90;;;;;;5024580;28;19960;-68
2023/04/03 05:37:47;;;;;;;;;;;1.90;99.90;;;;;;5024513;28;19965;-68
2023/04/03 05:40:14;;;;;;;;;;;1.80;99.90;;;;;;5025241;28;19992;-67
2023/04/03 05:42:41;;;;;;;;;;;1.80;99.90;;;;;;5024980;28;19930;-68
2023/04/03 05:45:07;;;;;;;;;;;1.80;99.90;;;;;;5025140;28;19988;-68
2023/04/03 05:47:34;;;;;;;;;;;1.80;99.90;;;;;;5023965;28;20208;-68
2023/04/03 05:50:02;;;;;;;;;;;1.80;99.90;;;;;;5024776;28;19988;-68
2023/04/03 05:52:29;;;;;;;;;;;1.90;99.90;;;;;;5025027;28;19921;-68
2023/04/03 05:54:56;;;;;;;;;;;1.90;99.90;;;;;;5024676;28;19961;-68
2023/04/03 05:57:23;;;;;;;;;;;1.90;99.90;;;;;;5023878;28;20094;-68
2023/04/03 05:59:50;;;;;;;;;;;2.00;99.90;;;;;;5024421;28;19929;-68
2023/04/03 06:02:17;;;;;;;;;;;2.00;99.90;;;;;;5021553;28;19921;-69
2023/04/03 06:04:44;;;;;;;;;;;2.00;99.90;;;;;;5018043;28;19948;-67
2023/04/03 06:07:16;;;;;;;;;;;2.10;99.90;;;;;;5020441;28;20178;-68
2023/04/03 06:09:43;;;;;;;;;;;2.10;99.90;;;;;;5004642;28;19921;-68
2023/04/03 06:12:10;;;;;;;;;;;2.00;99.90;;;;;;5010571;28;20202;-67
2023/04/03 06:14:37;;;;;;;;;;;2.00;99.90;;;;;;5023950;28;20176;-68
2023/04/03 06:17:04;;;;;;;;;;;2.00;99.90;;;;;;5030144;28;19921;-69
2023/04/03 06:19:33;;;;;;;;;;;2.00;99.90;;;;;;5029651;28;19984;-68
2023/04/03 06:22:00;;;;;;;;;;;2.00;99.90;;;;;;5024667;28;19921;-68
2023/04/03 06:24:28;;;;;;;;;;;2.10;99.90;;;;;;5010240;28;19928;-68
2023/04/03 06:26:55;;;;;;;;;;;2.10;99.90;;;;;;5009338;28;19993;-68
2023/04/03 06:29:22;;;;;;;;;;;2.10;99.90;;;;;;5023144;28;20170;-68
2023/04/03 06:31:48;;;;;;;;;;;2.20;99.90;;;;;;5021078;28;19929;-67
2023/04/03 06:34:16;;;;;;;;;;;2.10;99.90;;;;;;5015988;28;19960;-69
2023/04/03 06:36:43;;;;;;;;;;;2.20;99.90;;;;;;5022593;28;19997;-68
2023/04/03 06:39:12;;;;;;;;;;;2.20;99.90;;;;;;5022986;28;20260;-67
2023/04/03 06:41:40;;;;;;;;;;;2.30;99.90;;;;;;5021950;28;19997;-69
2023/04/03 06:44:10;;;;;;;;;;;2.30;99.90;;;;;;5023470;28;19921;-68
2023/04/03 06:46:37;;;;;;;;;;;2.30;99.90;;;;;;5022675;28;19926;-68
2023/04/03 06:49:04;;;;;;;;;;;2.30;99.90;;;;;;5023763;28;19955;-68
2023/04/03 06:51:31;;;;;;;;;;;2.30;99.90;;;;;;5023345;28;20095;-69
2023/04/03 06:53:58;;;;;;;;;;;2.30;99.90;;;;;;5022864;28;19928;-68
2023/04/03 06:56:26;;;;;;;;;;;2.30;99.90;;;;;;5015371;28;19927;-68
2023/04/03 06:58:54;;;;;;;;;;;2.40;99.90;;;;;;5016720;28;19937;-67
2023/04/03 07:01:21;;;;;;;;;;;2.30;99.90;;;;;;5019078;28;19934;-68
2023/04/03 07:03:48;;;;;;;;;;;2.30;99.90;;;;;;5022405;28;19928;-68
2023/04/03 07:06:17;;;;;;;;;;;2.40;99.90;;;;;;5017349;28;19921;-68
2023/04/03 07:08:44;;;;;;;;;;;2.30;99.90;;;;;;5011287;28;19922;-68
2023/04/03 07:11:11;;;;;;;;;;;2.30;99.90;;;;;;5022587;28;19929;-68
2023/04/03 07:13:38;;;;;;;;;;;2.40;99.90;;;;;;5023026;28;19929;-67
2023/04/03 07:16:08;;;;;;;;;;;2.40;99.90;;;;;;5021829;28;19929;-69
2023/04/03 07:18:34;;;;;;;;;;;2.40;99.90;;;;;;5022727;28;19934;-68
2023/04/03 07:21:01;;;;;;;;;;;2.50;99.90;;;;;;5020937;28;19929;-69
2023/04/03 07:23:28;;;;;;;;;;;2.50;99.90;;;;;;5021493;28;20000;-68
2023/04/03 07:25:55;;;;;;;;;;;2.50;99.90;;;;;;5022305;28;19964;-66
2023/04/03 07:28:22;;;;;;;;;;;2.50;99.90;;;;;;5014829;28;19944;-67
2023/04/03 07:30:50;;;;;;;;;;;2.50;99.90;;;;;;5018656;28;19929;-67
2023/04/03 07:33:19;;;;;;;;;;;2.50;99.90;;;;;;5020232;28;19921;-67
2023/04/03 07:35:46;;;;;;;;;;;2.50;99.90;;;;;;5020640;28;20221;-68
2023/04/03 07:38:13;;;;;;;;;;;2.50;99.90;;;;;;5022253;28;19932;-68
2023/04/03 07:40:41;;;;;;;;;;;2.60;99.90;;;;;;5015525;28;19930;-68
2023/04/03 07:43:07;;;;;;;;;;;2.60;99.90;;;;;;5020075;28;19957;-67
2023/04/03 07:45:35;;;;;;;;;;;2.60;99.90;;;;;;5023658;28;19996;-69
2023/04/03 07:48:02;;;;;;;;;;;2.70;99.90;;;;;;5026487;28;19921;-68
2023/04/03 07:50:36;;;;;;;;;;;2.70;99.90;;;;;;5026643;28;19929;-68
2023/04/03 07:53:03;;;;;;;;;;;2.80;99.90;;;;;;5027165;28;19936;-68
2023/04/03 07:55:30;;;;;;;;;;;2.90;99.90;;;;;;5026655;28;19925;-68
2023/04/03 07:57:57;;;;;;;;;;;2.90;99.90;;;;;;5026496;28;20179;-67
2023/04/03 08:00:24;;;;;;;;;;;2.90;99.90;;;;;;5025796;28;19927;-68
2023/04/03 08:02:51;;;;;;;;;;;2.90;99.90;;;;;;5026254;28;20239;-68
2023/04/03 08:05:18;;;;;;;;;;;2.90;99.90;;;;;;5019267;28;20118;-68
2023/04/03 08:07:46;;;;;;;;;;;3.00;99.90;;;;;;5019749;28;19944;-69
2023/04/03 08:10:13;;;;;;;;;;;3.10;99.90;;;;;;5005109;28;19922;-68
2023/04/03 08:12:39;;;;;;;;;;;3.10;99.90;;;;;;5022861;28;19992;-68
2023/04/03 08:15:07;;;;;;;;;;;3.20;99.90;;;;;;5025777;28;19957;-68
2023/04/03 08:17:33;;;;;;;;;;;3.20;99.90;;;;;;5025221;28;19989;-68
2023/04/03 08:20:00;;;;;;;;;;;3.30;99.90;;;;;;5025171;28;20178;-68
2023/04/03 08:22:27;;;;;;;;;;;3.40;99.90;;;;;;5025441;28;19989;-68
2023/04/03 08:24:55;;;;;;;;;;;3.40;99.90;;;;;;5025976;28;19997;-68
2023/04/03 08:27:21;;;;;;;;;;;3.50;99.90;;;;;;5025145;28;19935;-68
2023/04/03 08:29:48;;;;;;;;;;;3.50;99.90;;;;;;5025871;28;19921;-68
2023/04/03 08:32:15;;;;;;;;;;;3.50;99.90;;;;;;5025207;28;19993;-68
2023/04/03 08:34:43;;;;;;;;;;;3.60;99.90;;;;;;5022318;28;19972;-68
2023/04/03 08:37:10;;;;;;;;;;;3.60;99.90;;;;;;5023742;28;19927;-68
2023/04/03 08:39:37;;;;;;;;;;;3.70;99.90;;;;;;5014941;28;19985;-67
2023/04/03 08:42:08;;;;;;;;;;;3.80;99.90;;;;;;5019773;28;19989;-68
2023/04/03 08:44:38;;;;;;;;;;;3.80;99.90;;;;;;5003815;28;19936;-68
2023/04/03 08:47:12;;;;;;;;;;;3.80;99.90;;;;;;5020145;28;19921;-68
2023/04/03 08:49:46;;;;;;;;;;;3.80;99.90;;;;;;5025140;28;19922;-68
2023/04/03 08:52:14;;;;;;;;;;;3.90;99.90;;;;;;5026194;28;19921;-68
2023/04/03 08:54:44;;;;;;;;;;;4.00;99.90;;;;;;5025411;28;20106;-67
2023/04/03 08:57:12;;;;;;;;;;;4.10;99.90;;;;;;5023776;28;19921;-68
2023/04/03 08:59:39;;;;;;;;;;;4.10;99.90;;;;;;5024919;28;19930;-68
2023/04/03 09:02:17;;;;;;;;;;;4.20;99.90;;;;;;5024900;28;19930;-67
2023/04/03 09:04:44;;;;;;;;;;;4.10;99.90;;;;;;5019612;28;19936;-68
2023/04/03 09:07:14;;;;;;;;;;;4.10;99.90;;;;;;5014398;28;19944;-68
2023/04/03 09:09:42;;;;;;;;;;;4.10;99.90;;;;;;5022485;28;19935;-67
2023/04/03 09:12:16;;;;;;;;;;;4.20;99.90;;;;;;5024919;28;19976;-67
2023/04/03 09:14:44;;;;;;;;;;;4.30;99.90;;;;;;5024145;28;19929;-68
2023/04/03 09:17:15;;;;;;;;;;;4.40;99.90;;;;;;5024168;28;19963;-68
2023/04/03 09:19:51;;;;;;;;;;;4.40;99.90;;;;;;5024134;28;19926;-68
2023/04/03 09:22:19;;;;;;;;;;;4.40;99.90;;;;;;5018538;28;19922;-68
2023/04/03 09:24:47;;;;;;;;;;;4.40;99.90;;;;;;5022894;28;20394;-67
2023/04/03 09:27:15;;;;;;;;;;;4.40;99.90;;;;;;5024987;28;19928;-67
2023/04/03 09:29:45;;;;;;;;;;;4.40;99.90;;;;;;5025496;28;19964;-67
2023/04/03 09:32:25;;;;;;;;;;;4.30;99.90;;;;;;5024861;28;19989;-67
2023/04/03 09:34:54;;;;;;;;;;;4.40;99.90;;;;;;5025125;28;19922;-65
2023/04/03 09:37:38;;;;;;;;;;;4.50;99.90;;;;;;5024704;28;20113;-68
2023/04/03 09:40:06;;;;;;;;;;;4.50;99.90;;;;;;5016612;28;19956;-68
2023/04/03 09:42:40;;;;;;;;;;;4.60;99.90;;;;;;5006148;28;19968;-68
2023/04/03 09:45:21;;;;;;;;;;;4.70;99.90;;;;;;5021972;28;19960;-68
2023/04/03 09:47:48;;;;;;;;;;;4.80;99.90;;;;;;5023544;28;19927;-68
2023/04/03 09:50:20;;;;;;;;;;;4.80;99.90;;;;;;5024268;28;19975;-67
2023/04/03 09:52:48;;;;;;;;;;;4.80;99.90;;;;;;5024351;28;19944;-67
2023/04/03 09:55:16;;;;;;;;;;;4.90;99.90;;;;;;5022848;28;19929;-68
2023/04/03 09:57:44;;;;;;;;;;;5.00;99.90;;;;;;5003916;28;20117;-68
2023/04/03 10:00:21;;;;;;;;;;;5.00;99.90;;;;;;5018586;28;20016;-67
2023/04/03 10:02:50;;;;;;;;;;;5.00;99.90;;;;;;5024019;28;19968;-67
2023/04/03 10:05:27;;;;;;;;;;;5.00;99.90;;;;;;5024123;28;19936;-67
2023/04/03 10:08:07;;;;;;;;;;;5.00;99.90;;;;;;5023065;28;19922;-67
2023/04/03 10:10:34;;;;;;;;;;;5.00;99.90;;;;;;5019838;28;19972;-67
2023/04/03 10:13:11;;;;;;;;;;;5.00;99.90;;;;;;5003971;28;20129;-68
2023/04/03 10:15:42;;;;;;;;;;;4.90;99.90;;;;;;5008263;28;19922;-68
2023/04/03 10:18:15;;;;;;;;;;;5.00;99.90;;;;;;5019645;28;19921;-67
2023/04/03 10:20:44;;;;;;;;;;;5.00;99.90;;;;;;5023892;28;20359;-67
2023/04/03 10:23:16;;;;;;;;;;;5.00;99.90;;;;;;5023709;28;19921;-68
2023/04/03 10:25:48;;;;;;;;;;;5.10;99.90;;;;;;5024174;28;20117;-67
2023/04/03 10:28:20;;;;;;;;;;;5.10;99.90;;;;;;5006020;28;19985;-67
2023/04/03 10:30:49;;;;;;;;;;;5.20;99.90;;;;;;5003988;28;19936;-68
2023/04/03 10:33:21;;;;;;;;;;;5.20;99.90;;;;;;5004049;28;19997;-67
2023/04/03 10:35:54;;;;;;;;;;;5.30;99.90;;;;;;5003472;28;19968;-68
2023/04/03 10:38:22;;;;;;;;;;;5.30;99.90;;;;;;5003299;28;20238;-68
2023/04/03 10:40:52;;;;;;;;;;;5.40;99.90;;;;;;5003245;28;20129;-69
2023/04/03 10:43:26;;;;;;;;;;;5.40;99.90;;;;;;5004684;28;19937;-69
2023/04/03 10:45:55;;;;;;;;;;;5.60;99.90;;;;;;5018014;28;20276;-67
2023/04/03 10:48:28;;;;;;;;;;;5.70;99.90;;;;;;5010990;28;19929;-68
2023/04/03 10:50:58;;;;;;;;;;;5.80;99.90;;;;;;5003346;28;20205;-69
2023/04/03 10:53:28;;;;;;;;;;;5.90;99.90;;;;;;5003681;28;19989;-68
2023/04/03 10:56:00;;;;;;;;;;;5.90;99.90;;;;;;5002383;28;19961;-67
2023/04/03 10:58:30;;;;;;;;;;;5.80;99.90;;;;;;5008115;28;19926;-68
2023/04/03 11:01:00;;;;;;;;;;;5.70;99.90;;;;;;5019912;28;20209;-68
2023/04/03 11:03:30;;;;;;;;;;;5.70;99.90;;;;;;5023406;28;20213;-67
2023/04/03 11:05:58;;;;;;;;;;;5.70;99.90;;;;;;5022615;28;19933;-67
2023/04/03 11:08:27;;;;;;;;;;;5.50;99.90;;;;;;5022789;28;19951;-67
2023/04/03 11:10:56;;;;;;;;;;;5.50;99.90;;;;;;5023378;28;19957;-68
2023/04/03 11:13:25;;;;;;;;;;;5.70;99.90;;;;;;5018395;28;19922;-68
2023/04/03 11:15:54;;;;;;;;;;;5.50;99.90;;;;;;5019205;28;20262;-68
2023/04/03 11:18:22;;;;;;;;;;;5.50;99.90;;;;;;5042459;28;19921;-67
2023/04/03 11:20:54;;;;;;;;;;;5.50;99.90;;;;;;5042501;28;19929;-68
2023/04/03 11:23:23;;;;;;;;;;;5.60;99.90;;;;;;5037397;28;20023;-67
2023/04/03 11:25:51;;;;;;;;;;;5.60;99.90;;;;;;5022382;28;20176;-67
2023/04/03 11:28:17;;;;;;;;;;;5.70;99.90;;;;;;5022395;28;20012;-66
2023/04/03 11:30:48;;;;;;;;;;;5.70;99.90;;;;;;5022584;28;19989;-67
2023/04/03 11:33:26;;;;;;;;;;;5.70;99.90;;;;;;5022722;28;19952;-68
2023/04/03 11:35:54;;;;;;;;;;;5.90;99.90;;;;;;5022310;28;19929;-69
2023/04/03 11:38:23;;;;;;;;;;;5.90;99.90;;;;;;5022264;28;19964;-67
2023/04/03 11:40:50;;;;;;;;;;;5.90;99.90;;;;;;5022427;28;19992;-67
2023/04/03 11:43:23;;;;;;;;;;;6.20;99.90;;;;;;5021967;28;19948;-67
2023/04/03 11:45:58;;;;;;;;;;;6.50;99.90;;;;;;5021736;28;20233;-68
2023/04/03 11:48:48;;;;;;;;;;;6.50;99.90;;;;;;5022059;28;19926;-68
2023/04/03 11:51:33;;;;;;;;;;;6.50;99.90;;;;;;5022595;28;19935;-68
2023/04/03 11:54:17;;;;;;;;;;;6.70;99.90;;;;;;5023025;28;19921;-68
2023/04/03 11:56:44;;;;;;;;;;;7.10;99.90;;;;;;5020292;28;19960;-69
2023/04/03 11:59:22;;;;;;;;;;;7.40;99.90;;;;;;5021513;28;19925;-68
2023/04/03 12:01:49;;;;;;;;;;;7.70;99.90;;;;;;5022041;28;19921;-68
2023/04/03 12:04:17;;;;;;;;;;;8.00;99.90;;;;;;5021958;28;19997;-68
2023/04/03 12:06:59;;;;;;;;;;;8.00;99.90;;;;;;5021360;28;20016;-68
2023/04/03 12:09:27;;;;;;;;;;;7.90;99.90;;;;;;5020313;28;19927;-68
2023/04/03 12:11:55;;;;;;;;;;;7.60;99.90;;;;;;5023033;28;19960;-68
2023/04/03 12:14:24;;;;;;;;;;;7.60;99.90;;;;;;5022585;28;19921;-68
2023/04/03 12:16:51;;;;;;;;;;;7.90;99.90;;;;;;5022760;28;19937;-67
2023/04/03 12:19:33;;;;;;;;;;;7.80;99.90;;;;;;5022331;28;19944;-67
2023/04/03 12:22:11;;;;;;;;;;;7.60;99.90;;;;;;5019342;28;19935;-67
2023/04/03 12:24:40;;;;;;;;;;;7.20;99.90;;;;;;5017146;28;19921;-68
2023/04/03 12:27:15;;;;;;;;;;;7.00;99.90;;;;;;5021473;28;19961;-69
2023/04/03 12:29:45;;;;;;;;;;;6.80;99.90;;;;;;5022516;28;19976;-67
2023/04/03 12:32:17;;;;;;;;;;;6.60;99.90;;;;;;5024679;28;19930;-68
2023/04/03 12:34:50;;;;;;;;;;;6.50;99.90;;;;;;5009452;28;19928;-67
2023/04/03 12:37:22;;;;;;;;;;;6.70;99.90;;;;;;5025533;28;19975;-67
2023/04/03 12:40:00;;;;;;;;;;;7.10;99.90;;;;;;5020949;28;19928;-69
2023/04/03 12:42:36;;;;;;;;;;;7.30;99.90;;;;;;5024625;28;20082;-68
2023/04/03 12:45:10;;;;;;;;;;;7.20;99.90;;;;;;5025051;28;19928;-68
2023/04/03 12:47:37;;;;;;;;;;;7.10;99.90;;;;;;5025142;28;19921;-68
2023/04/03 12:50:05;;;;;;;;;;;6.80;99.90;;;;;;5026047;28;19981;-67
2023/04/03 12:52:38;;;;;;;;;;;6.60;99.90;;;;;;5026188;28;19988;-68
2023/04/03 12:55:10;;;;;;;;;;;6.50;99.90;;;;;;5025814;28;19968;-68
2023/04/03 12:57:37;;;;;;;;;;;6.80;99.90;;;;;;5008341;28;19930;-68
2023/04/03 13:00:18;;;;;;;;;;;7.00;99.90;;;;;;5006184;28;19921;-67
2023/04/03 13:02:45;;;;;;;;;;;7.00;99.90;;;;;;5018813;28;20225;-69
2023/04/03 13:05:16;;;;;;;;;;;6.90;99.90;;;;;;5014356;28;19936;-68
2023/04/03 13:07:44;;;;;;;;;;;6.70;99.90;;;;;;5022230;28;19921;-68
2023/04/03 13:10:16;;;;;;;;;;;6.70;99.90;;;;;;5025081;28;19960;-67
2023/04/03 13:12:47;;;;;;;;;;;6.60;99.90;;;;;;5027030;28;19922;-68
2023/04/03 13:15:16;;;;;;;;;;;6.50;99.90;;;;;;5022843;28;19984;-68
2023/04/03 13:17:43;;;;;;;;;;;6.70;99.90;;;;;;5020633;28;19921;-68
2023/04/03 13:20:15;;;;;;;;;;;6.80;99.90;;;;;;5021815;28;19930;-68
2023/04/03 13:22:47;;;;;;;;;;;7.10;99.90;;;;;;5021368;28;19928;-68
2023/04/03 13:25:15;;;;;;;;;;;7.40;99.90;;;;;;5025736;28;20180;-68
2023/04/03 13:27:43;;;;;;;;;;;7.60;99.90;;;;;;5019997;28;20001;-68
2023/04/03 13:30:20;;;;;;;;;;;7.90;99.90;;;;;;5029667;28;19921;-68
2023/04/03 13:32:47;;;;;;;;;;;8.40;99.90;;;;;;5040552;28;19921;-68
2023/04/03 13:35:27;;;;;;;;;;;9.10;99.90;;;;;;5028166;28;19993;-68
2023/04/03 13:37:59;;;;;;;;;;;9.50;99.90;;;;;;5021992;28;19940;-73
2023/04/03 13:40:25;;;;;;;;;;;10.00;99.90;;;;;;5025096;28;19929;-68
2023/04/03 13:42:59;;;;;;;;;;;10.20;99.90;;;;;;5024409;28;19980;-68
2023/04/03 13:45:28;;;;;;;;;;;10.20;99.90;;;;;;5024458;28;19975;-69
2023/04/03 13:48:08;;;;;;;;;;;10.00;99.90;;;;;;5023210;28;19929;-68
2023/04/03 13:50:50;;;;;;;;;;;9.10;99.90;;;;;;5019919;28;19925;-69
2023/04/03 13:53:18;;;;;;;;;;;8.40;99.90;;;;;;5024281;28;19922;-68
2023/04/03 13:55:55;;;;;;;;;;;8.00;99.90;;;;;;5020805;28;19980;-69
2023/04/03 13:58:24;;;;;;;;;;;7.50;99.90;;;;;;5024471;28;20213;-68
2023/04/03 14:00:51;;;;;;;;;;;7.20;99.90;;;;;;5024958;28;19996;-67
2023/04/03 14:03:22;;;;;;;;;;;7.00;99.90;;;;;;5024101;28;19968;-68
2023/04/03 14:05:48;;;;;;;;;;;7.10;99.90;;;;;;5022631;28;19925;-68
2023/04/03 14:08:15;;;;;;;;;;;7.40;99.90;;;;;;5024364;28;19921;-69
2023/04/03 14:10:47;;;;;;;;;;;7.70;99.90;;;;;;5024120;28;20120;-69
2023/04/03 14:13:14;;;;;;;;;;;8.20;99.90;;;;;;5014421;28;19960;-69
2023/04/03 14:15:44;;;;;;;;;;;8.50;99.90;;;;;;5004415;28;19957;-68
2023/04/03 14:18:11;;;;;;;;;;;9.00;99.90;;;;;;5004921;28;19941;-69
2023/04/03 14:20:39;;;;;;;;;;;9.40;99.90;;;;;;5002409;28;19922;-68
2023/04/03 14:23:06;;;;;;;;;;;9.90;99.90;;;;;;5004667;28;19930;-68
2023/04/03 14:25:32;;;;;;;;;;;10.00;99.90;;;;;;5004385;28;20261;-69
2023/04/03 14:28:13;;;;;;;;;;;10.00;99.90;;;;;;5003916;28;20165;-68
2023/04/03 14:30:46;;;;;;;;;;;9.80;99.90;;;;;;5027273;28;19921;-69
2023/04/03 14:33:14;;;;;;;;;;;9.30;99.90;;;;;;5041135;28;19928;-68
2023/04/03 14:35:41;;;;;;;;;;;8.90;99.90;;;;;;5018930;28;19928;-71
2023/04/03 14:38:13;;;;;;;;;;;8.50;99.90;;;;;;5023564;28;19945;-69